createdAt,value
2023-07-20T00:00:42.923Z,4.18
2023-07-20T00:03:25.420Z,4.12
2023-07-20T00:06:06.577Z,4.12
2023-07-20T00:08:45.873Z,3.99
2023-07-20T00:11:25.295Z,3.93
2023-07-20T00:14:09.661Z,3.93
2023-07-20T00:16:48.967Z,3.62
2023-07-20T00:19:28.421Z,3.61
2023-07-20T00:22:07.806Z,3.44
2023-07-20T00:24:47.123Z,3.51
2023-07-20T00:27:26.435Z,3.64
2023-07-20T00:30:12.108Z,3.69
2023-07-20T00:32:51.956Z,3.65
2023-07-20T00:35:31.328Z,3.56
2023-07-20T00:38:10.967Z,3.55
2023-07-20T00:40:50.547Z,3.27
2023-07-20T00:43:29.948Z,3.67
2023-07-20T00:46:15.911Z,3.45
2023-07-20T00:48:55.367Z,3.93
2023-07-20T00:51:35.629Z,3.91
2023-07-20T00:54:15.174Z,3.68
2023-07-20T00:56:55.137Z,3.97
2023-07-20T00:59:34.784Z,3.67
2023-07-20T01:02:19.202Z,3.93
2023-07-20T01:04:58.848Z,3.83
2023-07-20T01:07:45.773Z,3.69
2023-07-20T01:10:33.829Z,3.93
2023-07-20T01:13:17.001Z,3.66
2023-07-20T01:15:58.868Z,3.42
2023-07-20T01:18:43.361Z,3.75
2023-07-20T01:21:32.670Z,3.74
2023-07-20T01:24:36.090Z,3.67
2023-07-20T01:27:45.168Z,3.52
2023-07-20T01:31:00.660Z,3.47
2023-07-20T01:33:48.769Z,3.49
2023-07-20T01:36:31.304Z,3.72
2023-07-20T01:39:11.070Z,3.28
2023-07-20T01:41:51.045Z,3.38
2023-07-20T01:44:30.436Z,3.52
2023-07-20T01:47:09.767Z,3.66
2023-07-20T01:49:54.555Z,3.82
2023-07-20T01:52:33.886Z,3.64
2023-07-20T01:55:14.548Z,3.60
2023-07-20T01:57:53.890Z,3.47
2023-07-20T02:00:33.684Z,3.64
2023-07-20T02:03:14.280Z,3.68
2023-07-20T02:05:59.316Z,3.58
2023-07-20T02:08:38.713Z,3.53
2023-07-20T02:11:18.043Z,3.61
2023-07-20T02:13:57.400Z,3.58
2023-07-20T02:16:36.871Z,3.60
2023-07-20T02:19:16.375Z,3.42
2023-07-20T02:22:00.789Z,3.33
2023-07-20T02:24:40.517Z,3.53
2023-07-20T02:27:19.961Z,3.76
2023-07-20T02:29:59.348Z,3.72
2023-07-20T02:32:39.692Z,3.51
2023-07-20T02:35:19.063Z,3.62
2023-07-20T02:38:03.535Z,3.59
2023-07-20T02:40:42.902Z,3.45
2023-07-20T02:43:22.300Z,3.44
2023-07-20T02:46:02.007Z,3.83
2023-07-20T02:48:41.402Z,3.55
2023-07-20T02:51:20.776Z,3.38
2023-07-20T02:54:05.653Z,3.67
2023-07-20T02:56:45.021Z,3.58
2023-07-20T02:59:24.513Z,3.61
2023-07-20T03:02:04.272Z,3.37
2023-07-20T03:04:44.025Z,3.63
2023-07-20T03:07:23.354Z,3.48
2023-07-20T03:10:09.767Z,3.74
2023-07-20T03:12:49.122Z,3.45
2023-07-20T03:15:28.528Z,3.46
2023-07-20T03:18:07.980Z,3.42
2023-07-20T03:20:48.051Z,3.49
2023-07-20T03:23:28.688Z,3.57
2023-07-20T03:26:13.088Z,3.79
2023-07-20T03:28:52.475Z,3.77
2023-07-20T03:31:31.852Z,3.67
2023-07-20T03:34:12.328Z,3.37
2023-07-20T03:36:53.164Z,3.63
2023-07-20T03:39:32.510Z,3.16
2023-07-20T03:42:17.166Z,3.87
2023-07-20T03:44:56.510Z,3.31
2023-07-20T03:47:35.916Z,3.64
2023-07-20T03:50:16.615Z,3.85
2023-07-20T03:52:55.998Z,3.75
2023-07-20T03:55:35.409Z,4.04
2023-07-20T03:58:19.908Z,3.98
2023-07-20T04:01:00.479Z,3.74
2023-07-20T04:03:40.912Z,4.10
2023-07-20T04:06:20.412Z,3.86
2023-07-20T04:08:59.776Z,3.93
2023-07-20T04:11:39.196Z,3.67
2023-07-20T04:14:23.642Z,3.78
2023-07-20T04:17:03.018Z,4.02
2023-07-20T04:19:42.461Z,3.98
2023-07-20T04:22:22.538Z,4.13
2023-07-20T04:25:01.888Z,4.21
2023-07-20T04:27:41.334Z,4.05
2023-07-20T04:30:27.211Z,4.00
2023-07-20T04:33:06.669Z,4.05
2023-07-20T04:35:57.830Z,4.11
2023-07-20T04:38:37.230Z,4.04
2023-07-20T04:41:17.154Z,4.19
2023-07-20T04:43:56.716Z,4.23
2023-07-20T04:46:43.737Z,4.16
2023-07-20T04:49:24.903Z,4.41
2023-07-20T04:52:05.135Z,4.28
2023-07-20T04:54:44.515Z,4.24
2023-07-20T04:57:23.871Z,4.19
2023-07-20T05:00:03.397Z,4.32
2023-07-20T05:02:49.724Z,4.55
2023-07-20T05:05:29.432Z,4.45
2023-07-20T05:08:08.907Z,4.54
2023-07-20T05:10:48.315Z,4.31
2023-07-20T05:13:28.162Z,4.65
2023-07-20T05:16:07.598Z,4.41
2023-07-20T05:18:52.128Z,4.47
2023-07-20T05:21:31.504Z,4.53
2023-07-20T05:24:11.028Z,4.42
2023-07-20T05:26:50.406Z,4.34
2023-07-20T05:29:29.768Z,4.41
2023-07-20T05:32:09.499Z,4.74
2023-07-20T05:34:53.960Z,4.69
2023-07-20T05:37:33.369Z,4.50
2023-07-20T05:40:14.470Z,4.68
2023-07-20T05:42:54.341Z,4.68
2023-07-20T05:45:33.674Z,4.36
2023-07-20T05:48:14.033Z,4.49
2023-07-20T05:50:58.601Z,4.54
2023-07-20T05:53:38.013Z,4.49
2023-07-20T05:56:17.544Z,4.36
2023-07-20T05:58:56.857Z,4.74
2023-07-20T06:01:36.217Z,4.95
2023-07-20T06:04:15.707Z,4.79
2023-07-20T06:07:00.166Z,4.60
2023-07-20T06:09:39.582Z,4.78
2023-07-20T06:12:19.152Z,4.77
2023-07-20T06:15:01.921Z,4.38
2023-07-20T06:17:41.436Z,4.52
2023-07-20T06:20:21.127Z,4.29
2023-07-20T06:23:05.794Z,4.32
2023-07-20T06:25:45.163Z,4.15
2023-07-20T06:28:24.493Z,4.36
2023-07-20T06:31:08.612Z,4.65
2023-07-20T06:33:48.072Z,4.65
2023-07-20T06:36:28.310Z,5.27
2023-07-20T06:41:56.114Z,5.49
2023-07-20T06:44:35.501Z,5.07
2023-07-20T06:47:15.157Z,4.94
2023-07-20T06:49:54.532Z,4.29
2023-07-20T06:52:33.921Z,4.39
2023-07-20T06:55:23.557Z,3.97
2023-07-20T07:00:44.783Z,3.80
2023-07-20T07:03:28.383Z,3.80
2023-07-20T07:06:09.221Z,3.36
2023-07-20T07:08:48.881Z,3.60
2023-07-20T07:11:33.807Z,3.48
2023-07-20T07:14:13.283Z,3.35
2023-07-20T07:16:58.040Z,3.32
2023-07-20T07:19:38.693Z,3.34
2023-07-20T07:22:18.827Z,3.30
2023-07-20T07:24:58.212Z,3.15
2023-07-20T07:27:42.630Z,3.23
2023-07-20T07:30:22.330Z,3.66
2023-07-20T07:33:02.232Z,3.25
2023-07-20T07:35:41.615Z,3.16
2023-07-20T07:38:43.083Z,3.47
2023-07-20T07:41:22.977Z,3.23
2023-07-20T07:44:07.813Z,3.57
2023-07-20T07:46:47.323Z,3.34
2023-07-20T07:49:26.791Z,3.17
2023-07-20T07:52:06.319Z,3.13
2023-07-20T07:54:45.754Z,3.12
2023-07-20T07:57:25.218Z,3.11
2023-07-20T08:00:13.179Z,3.31
2023-07-20T08:02:52.632Z,3.22
2023-07-20T08:05:32.263Z,3.55
2023-07-20T08:08:12.074Z,3.27
2023-07-20T08:10:51.392Z,3.26
2023-07-20T08:13:30.737Z,2.94
2023-07-20T08:16:15.249Z,3.00
2023-07-20T08:18:54.917Z,2.86
2023-07-20T08:21:34.437Z,2.89
2023-07-20T08:24:14.761Z,2.89
2023-07-20T08:26:54.229Z,2.78
2023-07-20T08:29:33.692Z,3.05
2023-07-20T08:32:18.480Z,2.92
2023-07-20T08:34:57.814Z,2.76
2023-07-20T08:37:37.243Z,2.95
2023-07-20T08:40:18.063Z,2.92
2023-07-20T08:42:58.532Z,2.94
2023-07-20T08:45:41.459Z,2.86
2023-07-20T08:48:28.849Z,2.73
2023-07-20T08:51:12.703Z,3.00
2023-07-20T08:53:55.901Z,3.05
2023-07-20T08:56:35.336Z,2.96
2023-07-20T08:59:16.874Z,2.81
2023-07-20T09:01:57.345Z,2.65
2023-07-20T09:04:42.880Z,3.00
2023-07-20T09:07:22.846Z,2.91
2023-07-20T09:10:08.318Z,3.10
2023-07-20T09:12:50.187Z,3.08
2023-07-20T09:15:31.369Z,2.98
2023-07-20T09:18:11.270Z,2.62
2023-07-20T09:20:56.312Z,2.82
2023-07-20T09:23:39.685Z,2.85
2023-07-20T09:26:20.352Z,2.57
2023-07-20T09:29:01.960Z,2.58
2023-07-20T09:31:42.248Z,2.74
2023-07-20T09:37:10.698Z,2.59
2023-07-20T09:42:37.073Z,2.62
2023-07-20T09:45:17.859Z,2.65
2023-07-20T09:50:40.824Z,2.19
2023-07-20T09:53:26.660Z,2.10
2023-07-20T09:56:07.459Z,2.18
2023-07-20T09:58:48.593Z,2.14
2023-07-20T10:01:32.235Z,2.17
2023-07-20T10:04:12.499Z,2.09
2023-07-20T10:06:58.162Z,2.21
2023-07-20T10:09:48.235Z,2.04
2023-07-20T10:12:31.255Z,2.12
2023-07-20T10:15:20.590Z,2.14
2023-07-20T10:18:15.960Z,1.93
2023-07-20T10:23:42.496Z,2.18
2023-07-20T10:26:27.384Z,2.40
2023-07-20T10:29:09.099Z,2.50
2023-07-20T10:31:49.126Z,2.15
2023-07-20T10:34:29.002Z,1.99
2023-07-20T10:37:09.190Z,2.11
2023-07-20T10:39:48.741Z,2.33
2023-07-20T10:42:42.537Z,2.42
2023-07-20T10:45:22.346Z,1.99
2023-07-20T10:48:04.936Z,1.90
2023-07-20T10:50:44.565Z,2.10
2023-07-20T10:53:25.264Z,2.12
2023-07-20T10:56:15.511Z,1.82
2023-07-20T10:59:06.057Z,2.12
2023-07-20T11:01:45.507Z,2.15
2023-07-20T11:04:25.832Z,2.08
2023-07-20T11:07:05.246Z,2.06
2023-07-20T11:09:49.210Z,2.21
2023-07-20T11:12:29.094Z,2.19
2023-07-20T11:15:16.007Z,2.35
2023-07-20T11:17:55.544Z,2.13
2023-07-20T11:20:35.716Z,2.23
2023-07-20T11:23:15.290Z,1.97
2023-07-20T11:25:54.717Z,2.40
2023-07-20T11:28:34.180Z,2.08
2023-07-20T11:31:23.502Z,2.12
2023-07-20T11:39:37.212Z,2.19
2023-07-20T11:45:02.756Z,2.20
2023-07-20T11:47:48.782Z,2.32
2023-07-20T11:50:28.530Z,2.11
2023-07-20T11:53:09.259Z,2.11
2023-07-20T11:55:49.637Z,2.29
2023-07-20T11:58:29.179Z,2.04
2023-07-20T12:01:08.638Z,2.07
2023-07-20T12:03:53.177Z,2.14
2023-07-20T12:06:34.661Z,1.97
2023-07-20T12:09:14.179Z,2.23
2023-07-20T12:11:57.594Z,2.03
2023-07-20T12:14:36.992Z,1.90
2023-07-20T12:17:17.280Z,1.97
2023-07-20T12:20:06.020Z,1.98
2023-07-20T12:22:48.364Z,2.11
2023-07-20T12:25:27.859Z,2.98
2023-07-20T12:28:10.275Z,2.33
2023-07-20T12:30:58.667Z,2.10
2023-07-20T12:33:38.017Z,2.09
2023-07-20T12:36:23.181Z,2.14
2023-07-20T12:39:03.718Z,2.23
2023-07-20T12:41:43.146Z,2.31
2023-07-20T12:44:22.480Z,2.96
2023-07-20T12:47:01.888Z,2.08
2023-07-20T12:49:41.581Z,2.22
2023-07-20T12:52:26.004Z,2.20
2023-07-20T12:55:05.814Z,2.21
2023-07-20T12:57:46.381Z,2.15
2023-07-20T13:00:26.456Z,2.22
2023-07-20T13:03:10.037Z,1.89
2023-07-20T13:08:39.287Z,2.26
2023-07-20T13:11:18.605Z,2.08
2023-07-20T13:13:57.974Z,2.25
2023-07-20T13:16:38.037Z,2.16
2023-07-20T13:19:17.412Z,2.04
2023-07-20T13:21:56.741Z,2.13
2023-07-20T13:24:41.299Z,2.03
2023-07-20T13:27:20.809Z,2.27
2023-07-20T13:30:00.763Z,2.07
2023-07-20T13:32:41.520Z,1.95
2023-07-20T13:35:23.984Z,2.00
2023-07-20T13:38:05.936Z,2.18
2023-07-20T13:40:50.393Z,2.18
2023-07-20T13:43:29.793Z,2.13
2023-07-20T13:46:09.164Z,2.24
2023-07-20T13:51:35.563Z,2.10
2023-07-20T13:57:03.456Z,2.14
2023-07-20T13:59:43.147Z,2.14
2023-07-20T14:07:49.585Z,2.32
2023-07-20T14:10:29.071Z,2.43
2023-07-20T14:13:13.562Z,2.09
2023-07-20T14:15:53.105Z,2.52
2023-07-20T14:18:33.473Z,2.54
2023-07-20T14:21:12.946Z,2.31
2023-07-20T14:23:54.626Z,2.46
2023-07-20T14:26:34.502Z,2.36
2023-07-20T14:29:20.327Z,2.22
2023-07-20T14:31:59.703Z,2.44
2023-07-20T14:34:40.003Z,2.30
2023-07-20T14:37:19.772Z,2.33
2023-07-20T14:40:00.840Z,2.26
2023-07-20T14:42:40.376Z,2.25
2023-07-20T14:45:24.892Z,2.33
2023-07-20T14:48:04.308Z,2.41
2023-07-20T14:50:43.742Z,2.38
2023-07-20T14:53:23.494Z,2.29
2023-07-20T14:56:07.691Z,2.28
2023-07-20T14:58:47.004Z,2.35
2023-07-20T15:01:31.701Z,2.40
2023-07-20T15:04:11.446Z,2.31
2023-07-20T15:06:50.961Z,2.54
2023-07-20T15:09:30.753Z,2.12
2023-07-20T15:12:10.445Z,2.09
2023-07-20T15:14:51.157Z,1.92
2023-07-20T15:17:35.605Z,2.11
2023-07-20T15:20:18.301Z,2.11
2023-07-20T15:22:57.718Z,1.86
2023-07-20T15:25:37.169Z,1.98
2023-07-20T15:28:16.637Z,2.00
2023-07-20T15:30:56.865Z,1.97
2023-07-20T15:33:41.418Z,2.06
2023-07-20T15:36:20.777Z,1.83
2023-07-20T15:39:00.155Z,1.94
2023-07-20T15:41:39.714Z,2.04
2023-07-20T15:44:20.980Z,1.89
2023-07-20T15:47:00.655Z,1.87
2023-07-20T15:49:46.892Z,1.98
2023-07-20T15:52:26.427Z,2.06
2023-07-20T15:55:06.877Z,2.13
2023-07-20T15:57:46.226Z,1.97
2023-07-20T16:00:27.313Z,1.98
2023-07-20T16:03:07.781Z,2.08
2023-07-20T16:05:52.246Z,2.00
2023-07-20T16:08:31.567Z,2.12
2023-07-20T16:11:10.960Z,2.10
2023-07-20T16:13:50.628Z,1.93
2023-07-20T16:16:30.086Z,2.11
2023-07-20T16:19:09.707Z,1.85
2023-07-20T16:21:54.219Z,1.97
2023-07-20T16:24:33.702Z,2.09
2023-07-20T16:27:14.692Z,2.09
2023-07-20T16:29:54.010Z,2.03
2023-07-20T16:32:33.371Z,1.84
2023-07-20T16:35:14.257Z,2.01
2023-07-20T16:48:55.530Z,2.08
2023-07-20T16:51:35.386Z,1.86
2023-07-20T16:54:19.874Z,2.11
2023-07-20T16:56:59.287Z,2.27
2023-07-20T16:59:40.612Z,1.95
2023-07-20T17:02:20.223Z,1.94
2023-07-20T17:05:00.361Z,1.89
2023-07-20T17:07:39.740Z,2.19
2023-07-20T17:10:24.647Z,2.00
2023-07-20T17:13:04.030Z,2.09
2023-07-20T17:15:43.556Z,1.94
2023-07-20T17:18:23.752Z,2.09
2023-07-20T17:21:03.090Z,2.04
2023-07-20T17:29:14.277Z,2.03
2023-07-20T17:31:54.675Z,2.17
2023-07-20T17:34:34.101Z,2.34
2023-07-20T17:45:30.297Z,2.41
2023-07-20T17:48:09.669Z,2.38
2023-07-20T17:50:49.064Z,2.17
2023-07-20T17:53:28.452Z,2.30
2023-07-20T17:56:08.225Z,2.15
2023-07-20T17:58:52.639Z,1.99
2023-07-20T18:01:32.189Z,2.33
2023-07-20T18:04:12.137Z,2.19
2023-07-20T18:06:51.529Z,2.19
2023-07-20T18:09:31.707Z,2.27
2023-07-20T18:12:11.582Z,2.17
2023-07-20T18:14:56.287Z,2.34
2023-07-20T18:17:35.686Z,2.17
2023-07-20T18:20:16.944Z,2.29
2023-07-20T18:22:56.339Z,2.24
2023-07-20T18:25:35.695Z,2.48
2023-07-20T18:28:15.010Z,2.38
2023-07-20T18:30:59.693Z,2.30
2023-07-20T18:33:39.030Z,2.15
2023-07-20T18:36:18.400Z,2.24
2023-07-20T18:38:57.719Z,2.30
2023-07-20T18:41:37.076Z,2.33
2023-07-20T18:44:16.615Z,2.41
2023-07-20T18:47:02.871Z,2.16
2023-07-20T18:49:42.214Z,2.27
2023-07-20T18:52:21.697Z,2.25
2023-07-20T18:55:01.045Z,2.37
2023-07-20T18:57:41.605Z,2.57
2023-07-20T19:00:24.044Z,2.49
2023-07-20T19:03:08.695Z,2.76
2023-07-20T19:05:48.160Z,2.33
2023-07-20T19:08:27.600Z,2.57
2023-07-20T19:13:51.884Z,2.84
2023-07-20T19:16:31.582Z,2.75
2023-07-20T19:19:17.313Z,2.78
2023-07-20T19:21:56.669Z,2.83
2023-07-20T19:24:36.078Z,2.66
2023-07-20T19:27:15.769Z,2.84
2023-07-20T19:29:55.268Z,2.77
2023-07-20T19:32:34.579Z,2.94
2023-07-20T19:35:19.300Z,2.89
2023-07-20T19:37:58.711Z,2.87
2023-07-20T19:40:38.161Z,3.99
2023-07-20T19:43:17.536Z,3.97
2023-07-20T19:45:57.413Z,3.46
2023-07-20T19:48:36.854Z,3.28
2023-07-20T19:51:21.295Z,3.28
2023-07-20T19:56:43.941Z,3.34
2023-07-20T19:59:23.330Z,3.40
2023-07-20T20:02:02.652Z,3.35
2023-07-20T20:07:31.094Z,3.48
2023-07-20T20:10:11.113Z,3.58
2023-07-20T20:12:51.335Z,3.88
2023-07-20T20:15:30.685Z,3.52
2023-07-20T20:18:10.954Z,3.29
2023-07-20T20:20:53.333Z,3.41
2023-07-20T20:23:39.970Z,3.54
2023-07-20T20:26:19.292Z,3.48
2023-07-20T20:28:58.646Z,3.38
2023-07-20T20:31:38.720Z,3.28
2023-07-20T20:34:18.072Z,3.14
2023-07-20T20:36:59.393Z,3.57
2023-07-20T20:39:43.788Z,3.51
2023-07-20T20:42:23.138Z,3.43
2023-07-20T20:45:02.621Z,3.45
2023-07-20T20:47:42.064Z,3.97
2023-07-20T20:50:22.265Z,3.77
2023-07-20T20:53:01.618Z,4.08
2023-07-20T20:55:46.035Z,3.96
2023-07-20T20:58:25.582Z,4.29
2023-07-20T21:01:09.375Z,4.05
2023-07-20T21:03:48.846Z,3.55
2023-07-20T21:06:28.438Z,4.21
2023-07-20T21:09:07.848Z,4.67
2023-07-20T21:11:52.354Z,4.59
2023-07-20T21:14:31.873Z,4.58
2023-07-20T21:17:11.682Z,4.22
2023-07-20T21:19:51.424Z,4.59
2023-07-20T21:22:30.825Z,4.74
2023-07-20T21:25:10.621Z,4.51
2023-07-20T21:27:55.140Z,4.46
2023-07-20T21:30:34.596Z,4.71
2023-07-20T21:33:16.206Z,3.89
2023-07-20T21:35:55.547Z,3.75
2023-07-20T21:38:35.682Z,4.14
2023-07-20T21:41:15.594Z,4.01
2023-07-20T21:44:00.066Z,4.02
2023-07-20T21:46:39.596Z,4.02
2023-07-20T21:49:19.107Z,4.23
2023-07-20T21:51:58.497Z,4.02
2023-07-20T21:54:38.120Z,3.88
2023-07-20T21:57:17.418Z,3.72
2023-07-20T22:00:01.899Z,4.04
2023-07-20T22:02:41.421Z,3.99
2023-07-20T22:05:23.412Z,3.92
2023-07-20T22:08:04.069Z,4.31
2023-07-20T22:10:43.534Z,4.24
2023-07-20T22:13:22.956Z,4.42
2023-07-20T22:16:07.667Z,4.41
2023-07-20T22:18:48.803Z,4.65
2023-07-20T22:21:29.508Z,4.61
2023-07-20T22:24:09.109Z,4.95
2023-07-20T22:26:48.729Z,5.04
2023-07-20T22:29:28.179Z,4.72
2023-07-20T22:32:14.650Z,4.68
2023-07-20T22:34:53.977Z,4.68
2023-07-20T22:37:33.364Z,4.55
2023-07-20T22:40:14.387Z,4.76
2023-07-20T22:42:53.864Z,4.85
2023-07-20T22:45:33.821Z,5.00
2023-07-20T22:48:19.540Z,4.63
2023-07-20T22:51:01.060Z,4.91
2023-07-20T22:53:41.448Z,5.13
2023-07-20T22:56:20.937Z,5.21
2023-07-20T22:59:00.578Z,4.87
2023-07-20T23:01:39.983Z,5.15
2023-07-20T23:04:25.401Z,5.25
2023-07-20T23:07:05.660Z,5.01
2023-07-20T23:09:45.989Z,5.24
2023-07-20T23:12:25.570Z,4.96
2023-07-20T23:15:06.226Z,4.98
2023-07-20T23:17:47.516Z,5.12
2023-07-20T23:20:32.080Z,5.35
2023-07-20T23:23:12.295Z,5.09
2023-07-20T23:25:51.626Z,4.95
2023-07-20T23:28:31.276Z,5.15
2023-07-20T23:31:11.465Z,5.26
2023-07-20T23:33:51.402Z,5.23
2023-07-20T23:36:35.812Z,5.18
2023-07-20T23:39:15.827Z,5.03
2023-07-20T23:41:56.533Z,5.15
2023-07-20T23:44:35.874Z,4.88
2023-07-20T23:47:16.617Z,4.95
2023-07-20T23:49:55.952Z,5.08
2023-07-20T23:52:42.554Z,4.94
2023-07-20T23:55:22.537Z,5.23
2023-07-20T23:58:02.414Z,4.88
